O I Sea — CFL746 — position and weather

sailwx.info

Track history (hours):
 
Tides and Currents Weather Stations Pressure Air Temp Water Temp Dewpoint Dewpoint Depression Visibility Wind Speed Wind Dir Waves Ship Positions

O I Sea

Last reported at 2017-Sep-24 21:07 UTC. Time now 2017-Oct-22 22:47 UTC.
Position N 49°16' W 123°07'.
Warning: this ship's position is 28 days out of date.

Length 23 m.

MMSI: 316023741.

Date/timePositionNaut miles runAvg speedWind from/ knotsBaromVisibWave heightAir tempDewpointWater temp
2017-Sep-24 21:07N 49°16' W 123°07'0 4.1
2017-Sep-24 21:00N 49°16' W 123°08'4 7.2
2017-Sep-24 20:30N 49°18' W 123°13'4 8.7
2017-Sep-24 20:00N 49°21' W 123°18'4 8.6
2017-Sep-24 19:30N 49°25' W 123°19'3 6.5
2017-Sep-24 19:00N 49°25' W 123°24'4 7.9
2017-Sep-24 18:30N 49°24' W 123°30'0 0.8
2017-Sep-24 18:00N 49°24' W 123°30'0 0.0
2017-Sep-24 17:30N 49°24' W 123°30'0 0.0
2017-Sep-24 17:00N 49°24' W 123°30'0 0.0
2017-Sep-24 16:30N 49°24' W 123°30'0 0.0
2017-Sep-24 15:48N 49°24' W 123°30'0 0.0
2017-Sep-24 15:24N 49°24' W 123°30'0 0.0
2017-Sep-24 15:00N 49°24' W 123°30'0 0.0
2017-Sep-24 14:00N 49°24' W 123°30'0 0.0
2017-Sep-24 13:30N 49°24' W 123°30'0 0.0
2017-Sep-24 13:00N 49°24' W 123°30'0 0.0
2017-Sep-24 11:30N 49°24' W 123°30'0 0.0
2017-Sep-24 10:57N 49°24' W 123°30'0 0.0
2017-Sep-24 10:30N 49°24' W 123°30'0 0.0
2017-Sep-24 09:57N 49°24' W 123°30'0 0.0
2017-Sep-24 09:30N 49°24' W 123°30'0 0.0
2017-Sep-24 08:57N 49°24' W 123°30'0 0.0
2017-Sep-24 08:27N 49°24' W 123°30'0 0.0
2017-Sep-24 07:51N 49°24' W 123°30'0 0.0
2017-Sep-24 07:24N 49°24' W 123°30'0 0.0
2017-Sep-24 06:54N 49°24' W 123°30'0 0.0
2017-Sep-24 06:24N 49°24' W 123°30'0 0.0
2017-Sep-24 06:00N 49°24' W 123°30'0 0.0
2017-Sep-24 05:30N 49°24' W 123°30'0 0.0
2017-Sep-24 04:39N 49°24' W 123°30'0 0.0
2017-Sep-24 04:30N 49°24' W 123°30'0 0.0
2017-Sep-24 04:00N 49°24' W 123°30'0 0.0
2017-Sep-24 03:30N 49°24' W 123°30'0 0.0
2017-Sep-24 02:57N 49°24' W 123°30'0 0.0
2017-Sep-24 02:30N 49°24' W 123°30'0 0.0
2017-Sep-24 02:00N 49°24' W 123°30'0 0.0
2017-Sep-24 01:24N 49°24' W 123°30'0 0.0
2017-Sep-24 00:54N 49°24' W 123°30'0 0.0
2017-Sep-24 00:15N 49°24' W 123°30'0 0.0
2017-Sep-24 00:00N 49°24' W 123°30'0 0.0
2017-Sep-23 23:30N 49°24' W 123°30'1 2.1
2017-Sep-23 23:00N 49°23' W 123°30'5 9.3
2017-Sep-23 22:30N 49°20' W 123°25'510.6
2017-Sep-23 22:00N 49°19' W 123°17'510.2
2017-Sep-23 21:30N 49°17' W 123°10'  
Track history (hours):
 
Tides and Currents Weather Stations Pressure Air Temp Water Temp Dewpoint Dewpoint Depression Visibility Wind Speed Wind Dir Waves Ship Positions

O I Sea

Last reported at 2017-Sep-24 21:07 UTC. Time now 2017-Oct-22 22:47 UTC.
Position N 49°16' W 123°07'.
Warning: this ship's position is 28 days out of date.

Length 23 m.

MMSI: 316023741.

Date/timePositionNaut miles runAvg speedWind from/ knotsBaromVisibWave heightAir tempDewpointWater temp
2017-Sep-24 21:07N 49°16' W 123°07'0 4.1
2017-Sep-24 21:00N 49°16' W 123°08'4 7.2
2017-Sep-24 20:30N 49°18' W 123°13'4 8.7
2017-Sep-24 20:00N 49°21' W 123°18'4 8.6
2017-Sep-24 19:30N 49°25' W 123°19'3 6.5
2017-Sep-24 19:00N 49°25' W 123°24'4 7.9
2017-Sep-24 18:30N 49°24' W 123°30'0 0.8
2017-Sep-24 18:00N 49°24' W 123°30'0 0.0
2017-Sep-24 17:30N 49°24' W 123°30'0 0.0
2017-Sep-24 17:00N 49°24' W 123°30'0 0.0
2017-Sep-24 16:30N 49°24' W 123°30'0 0.0
2017-Sep-24 15:48N 49°24' W 123°30'0 0.0
2017-Sep-24 15:24N 49°24' W 123°30'0 0.0
2017-Sep-24 15:00N 49°24' W 123°30'0 0.0
2017-Sep-24 14:00N 49°24' W 123°30'0 0.0
2017-Sep-24 13:30N 49°24' W 123°30'0 0.0
2017-Sep-24 13:00N 49°24' W 123°30'0 0.0
2017-Sep-24 11:30N 49°24' W 123°30'0 0.0
2017-Sep-24 10:57N 49°24' W 123°30'0 0.0
2017-Sep-24 10:30N 49°24' W 123°30'0 0.0
2017-Sep-24 09:57N 49°24' W 123°30'0 0.0
2017-Sep-24 09:30N 49°24' W 123°30'0 0.0
2017-Sep-24 08:57N 49°24' W 123°30'0 0.0
2017-Sep-24 08:27N 49°24' W 123°30'0 0.0
2017-Sep-24 07:51N 49°24' W 123°30'0 0.0
2017-Sep-24 07:24N 49°24' W 123°30'0 0.0
2017-Sep-24 06:54N 49°24' W 123°30'0 0.0
2017-Sep-24 06:24N 49°24' W 123°30'0 0.0
2017-Sep-24 06:00N 49°24' W 123°30'0 0.0
2017-Sep-24 05:30N 49°24' W 123°30'0 0.0
2017-Sep-24 04:39N 49°24' W 123°30'0 0.0
2017-Sep-24 04:30N 49°24' W 123°30'0 0.0
2017-Sep-24 04:00N 49°24' W 123°30'0 0.0
2017-Sep-24 03:30N 49°24' W 123°30'0 0.0
2017-Sep-24 02:57N 49°24' W 123°30'0 0.0
2017-Sep-24 02:30N 49°24' W 123°30'0 0.0
2017-Sep-24 02:00N 49°24' W 123°30'0 0.0
2017-Sep-24 01:24N 49°24' W 123°30'0 0.0
2017-Sep-24 00:54N 49°24' W 123°30'0 0.0
2017-Sep-24 00:15N 49°24' W 123°30'0 0.0
2017-Sep-24 00:00N 49°24' W 123°30'0 0.0
2017-Sep-23 23:30N 49°24' W 123°30'1 2.1
2017-Sep-23 23:00N 49°23' W 123°30'5 9.3
2017-Sep-23 22:30N 49°20' W 123°25'510.6
2017-Sep-23 22:00N 49°19' W 123°17'510.2
2017-Sep-23 21:30N 49°17' W 123°10'  

Dump ship's entire track history